Time;durP1;ratioP1;P1;durP2;ratioP2;P2;SDS_P1;SDS_P2;PMS_P1;PMS_P2;Temp;Humidity;BMP_temperature;BMP_pressure;BME280_temperature;BME280_humidity;BME280_pressure;Samples;Min_cycle;Max_cycle;Signal;HPM_P1;HPM_P2
2022/04/17 00:01:58;;;;;;;26.20;20.52;;;27.20;99.90;;;;;;5015136;28;20091;-63
2022/04/17 00:04:24;;;;;;;26.95;21.20;;;27.40;99.90;;;;;;5015125;28;20064;-63
2022/04/17 00:06:51;;;;;;;32.38;23.83;;;27.30;99.90;;;;;;5014701;28;20017;-63
2022/04/17 00:09:18;;;;;;;30.95;22.60;;;27.30;99.90;;;;;;5014521;28;20029;-63
2022/04/17 00:11:44;;;;;;;29.00;21.00;;;27.30;99.90;;;;;;5014757;28;20057;-63
2022/04/17 00:14:11;;;;;;;27.58;19.67;;;27.40;99.90;;;;;;5014615;28;20022;-64
2022/04/17 00:16:40;;;;;;;24.23;18.35;;;27.40;99.90;;;;;;5014793;28;20030;-69
2022/04/17 00:19:07;;;;;;;25.40;20.98;;;27.50;99.90;;;;;;5015255;28;20061;-66
2022/04/17 00:21:34;;;;;;;30.02;23.75;;;27.50;99.90;;;;;;5013706;28;20080;-63
2022/04/17 00:24:01;;;;;;;34.80;25.55;;;27.60;99.90;;;;;;5014386;28;20068;-61
2022/04/17 00:26:27;;;;;;;36.60;24.75;;;27.70;99.90;;;;;;5014666;28;20022;-65
2022/04/17 00:28:54;;;;;;;35.67;24.73;;;27.80;99.90;;;;;;5014533;28;20033;-61
2022/04/17 00:31:21;;;;;;;34.42;25.02;;;27.80;99.90;;;;;;5014428;28;20026;-62
2022/04/17 00:33:47;;;;;;;35.60;25.40;;;27.80;99.90;;;;;;5014186;28;20022;-65
2022/04/17 00:36:14;;;;;;;34.20;24.73;;;27.90;99.90;;;;;;5014461;28;20030;-64
2022/04/17 00:38:41;;;;;;;33.13;25.33;;;27.90;99.90;;;;;;5014029;28;20072;-66
2022/04/17 00:41:07;;;;;;;35.22;26.73;;;27.90;99.90;;;;;;4996656;28;20493;-65
2022/04/17 00:43:46;;;;;;;37.88;29.35;;;28.00;99.90;;;;;;5014656;28;20049;-66
2022/04/17 00:46:13;;;;;;;43.15;29.67;;;28.00;99.90;;;;;;5012690;28;20041;-63
2022/04/17 00:48:40;;;;;;;39.05;30.52;;;27.90;99.90;;;;;;5011580;28;20022;-63
2022/04/17 00:51:08;;;;;;;40.33;31.60;;;28.00;99.90;;;;;;5010077;28;20057;-65
2022/04/17 00:53:36;;;;;;;42.25;32.50;;;28.00;99.90;;;;;;5010616;28;20022;-65
2022/04/17 00:56:03;;;;;;;40.25;31.48;;;28.10;99.90;;;;;;5013501;28;20026;-66
2022/04/17 00:58:32;;;;;;;40.63;31.60;;;28.20;99.90;;;;;;5010043;28;21297;-65
2022/04/17 01:00:59;;;;;;;38.72;30.90;;;28.20;99.90;;;;;;5011578;28;20030;-64
2022/04/17 01:03:28;;;;;;;43.85;31.83;;;28.20;99.90;;;;;;5012599;28;20029;-63
2022/04/17 01:05:55;;;;;;;47.50;31.92;;;28.20;99.90;;;;;;5012567;28;20026;-66
2022/04/17 01:08:21;;;;;;;46.00;34.17;;;28.30;99.90;;;;;;5011555;28;20150;-66
2022/04/17 01:10:48;;;;;;;39.20;31.50;;;28.30;99.90;;;;;;5012032;28;20049;-61
2022/04/17 01:13:16;;;;;;;49.60;35.13;;;28.30;99.90;;;;;;5011937;28;20014;-64
2022/04/17 01:15:44;;;;;;;47.90;34.30;;;28.30;99.90;;;;;;5012939;28;20285;-64
2022/04/17 01:18:10;;;;;;;41.45;33.53;;;28.50;99.90;;;;;;5012924;28;20499;-63
2022/04/17 01:20:38;;;;;;;47.60;35.70;;;28.50;99.90;;;;;;5013100;28;20037;-65
2022/04/17 01:28:39;;;;;;;38.95;32.15;;;28.90;99.90;;;;;;5011556;28;20093;-64
2022/04/17 01:31:05;;;;;;;40.75;31.88;;;29.00;99.90;;;;;;5013525;28;20038;-63
2022/04/17 01:33:32;;;;;;;43.22;34.20;;;29.00;99.90;;;;;;5015549;28;20518;-63
2022/04/17 01:35:59;;;;;;;38.72;32.13;;;29.00;99.90;;;;;;5016835;28;20044;-65
2022/04/17 01:38:25;;;;;;;40.55;30.83;;;29.00;99.90;;;;;;5016659;28;20065;-64
2022/04/17 01:40:52;;;;;;;46.00;34.65;;;29.10;99.90;;;;;;5017481;28;20294;-64
2022/04/17 01:43:19;;;;;;;47.40;33.53;;;29.20;99.90;;;;;;5017621;28;20038;-64
2022/04/17 01:45:45;;;;;;;38.80;31.67;;;29.20;99.90;;;;;;5016826;28;20095;-63
2022/04/17 01:48:12;;;;;;;42.60;32.15;;;29.30;99.90;;;;;;5015335;28;20479;-66
2022/04/17 01:50:39;;;;;;;41.67;32.85;;;29.50;99.90;;;;;;5016943;28;20022;-63
2022/04/17 01:53:05;;;;;;;43.60;35.45;;;29.50;99.90;;;;;;5017170;28;20080;-64
2022/04/17 01:55:32;;;;;;;44.97;36.63;;;29.50;99.90;;;;;;5017683;28;20383;-64
2022/04/17 01:57:59;;;;;;;49.53;36.50;;;29.30;99.90;;;;;;5017335;28;20026;-63
2022/04/17 02:00:26;;;;;;;49.08;36.33;;;29.40;99.90;;;;;;5017269;28;20057;-63
2022/04/17 02:02:52;;;;;;;46.40;34.30;;;29.30;99.90;;;;;;5017447;28;20068;-64
2022/04/17 02:05:19;;;;;;;46.80;35.03;;;29.30;99.90;;;;;;5017112;28;20064;-65
2022/04/17 02:07:46;;;;;;;46.13;34.33;;;29.30;99.90;;;;;;5017046;28;20386;-64
2022/04/17 02:10:19;;;;;;;47.90;34.90;;;29.30;99.90;;;;;;5016844;28;20454;-64
2022/04/17 02:12:47;;;;;;;45.15;34.38;;;29.30;99.90;;;;;;5017196;28;20482;-64
2022/04/17 02:15:14;;;;;;;50.35;34.22;;;29.30;99.90;;;;;;5016541;28;20399;-64
2022/04/17 02:17:41;;;;;;;44.33;33.60;;;29.40;99.90;;;;;;5017231;28;20057;-65
2022/04/17 02:20:10;;;;;;;41.88;31.08;;;29.50;99.90;;;;;;5017041;28;20022;-63
2022/04/17 02:22:37;;;;;;;41.15;29.90;;;29.50;99.90;;;;;;5015945;28;20509;-64
2022/04/17 02:25:04;;;;;;;34.08;29.63;;;29.70;99.90;;;;;;5016404;28;20113;-64
2022/04/17 02:27:32;;;;;;;46.10;31.92;;;30.00;99.90;;;;;;5016219;28;20018;-65
2022/04/17 02:29:58;;;;;;;42.95;31.50;;;29.90;99.90;;;;;;5013628;28;20025;-65
2022/04/17 02:32:25;;;;;;;42.20;31.00;;;29.90;99.90;;;;;;5016033;28;20045;-65
2022/04/17 02:34:52;;;;;;;36.75;28.90;;;30.10;99.90;;;;;;5015749;28;20060;-64
2022/04/17 02:37:20;;;;;;;33.40;26.02;;;30.10;99.90;;;;;;5017311;28;20502;-65
2022/04/17 02:39:48;;;;;;;35.30;27.88;;;30.10;99.90;;;;;;5015750;28;20134;-66
2022/04/17 02:42:14;;;;;;;40.30;29.42;;;30.20;99.90;;;;;;5006987;28;20529;-65
2022/04/17 02:44:41;;;;;;;40.72;31.50;;;30.30;99.90;;;;;;5014322;28;20030;-66
2022/04/17 02:49:54;;;;;;;35.67;28.85;;;30.30;99.90;;;;;;5016076;28;20037;-65
2022/04/17 02:52:21;;;;;;;36.47;29.98;;;30.30;99.90;;;;;;5002067;28;20109;-65
2022/04/17 02:54:48;;;;;;;36.97;28.52;;;30.20;99.90;;;;;;5014599;28;20034;-65
2022/04/17 02:57:14;;;;;;;35.90;27.63;;;30.10;99.90;;;;;;5015276;28;20026;-65
2022/04/17 02:59:41;;;;;;;38.90;28.65;;;30.20;99.90;;;;;;5015141;28;20026;-66
2022/04/17 03:07:47;;;;;;;36.78;28.30;;;30.60;99.90;;;;;;5015078;28;20518;-65
2022/04/17 03:10:14;;;;;;;33.60;27.45;;;30.70;99.90;;;;;;4998168;28;20501;-65
2022/04/17 03:12:40;;;;;;;35.90;27.80;;;30.70;99.90;;;;;;5016016;28;20022;-66
2022/04/17 03:15:08;;;;;;;33.17;25.92;;;30.70;99.90;;;;;;5015886;28;20025;-68
2022/04/17 03:17:35;;;;;;;34.40;27.42;;;30.70;99.90;;;;;;5015368;28;20097;-66
2022/04/17 03:20:03;;;;;;;34.95;28.63;;;30.60;99.90;;;;;;5016450;28;20392;-66
2022/04/17 03:22:30;;;;;;;37.05;27.35;;;30.50;99.90;;;;;;5015925;28;21553;-66
2022/04/17 03:24:56;;;;;;;35.00;27.17;;;30.50;99.90;;;;;;5015447;28;20494;-66
2022/04/17 03:27:23;;;;;;;32.65;26.45;;;30.40;99.90;;;;;;5016034;28;20022;-67
2022/04/17 03:29:50;;;;;;;40.67;32.45;;;30.60;99.90;;;;;;5015592;28;21078;-66
2022/04/17 03:32:16;;;;;;;44.15;35.20;;;30.80;99.90;;;;;;5015099;28;20402;-66
2022/04/17 03:34:43;;;;;;;42.70;32.97;;;30.80;99.90;;;;;;5015431;28;20042;-67
2022/04/17 03:37:10;;;;;;;42.78;32.83;;;31.10;99.90;;;;;;5015382;28;20379;-66
2022/04/17 03:39:36;;;;;;;44.67;35.92;;;31.20;99.90;;;;;;5014881;28;20113;-66
2022/04/17 03:42:04;;;;;;;35.10;28.98;;;31.20;99.90;;;;;;5015271;28;20021;-66
2022/04/17 03:44:31;;;;;;;41.70;33.85;;;31.00;99.90;;;;;;5014996;28;20022;-66
2022/04/17 03:46:58;;;;;;;46.72;32.55;;;31.00;99.90;;;;;;5015345;28;20014;-65
2022/04/17 03:49:24;;;;;;;36.38;29.15;;;30.90;99.90;;;;;;5014969;28;20355;-65
2022/04/17 03:51:51;;;;;;;44.05;34.42;;;31.00;99.90;;;;;;5016201;28;20109;-66
2022/04/17 03:54:18;;;;;;;48.53;37.67;;;30.90;99.90;;;;;;5014544;28;20475;-66
2022/04/17 03:56:46;;;;;;;44.38;33.17;;;31.00;99.90;;;;;;5015677;28;20037;-66
2022/04/17 03:59:13;;;;;;;44.15;33.92;;;31.00;99.90;;;;;;5017559;28;20029;-65
2022/04/17 04:01:40;;;;;;;44.33;34.40;;;31.10;99.90;;;;;;5014945;28;20080;-64
2022/04/17 04:04:07;;;;;;;53.22;36.92;;;31.30;99.90;;;;;;5015836;28;20475;-65
2022/04/17 04:06:34;;;;;;;75.38;53.67;;;31.50;99.90;;;;;;5015708;28;20064;-64
2022/04/17 04:09:01;;;;;;;61.72;44.22;;;31.70;99.90;;;;;;5015145;28;20045;-65
2022/04/17 04:11:27;;;;;;;53.00;40.63;;;32.00;99.90;;;;;;5015448;28;20022;-65
2022/04/17 04:13:54;;;;;;;58.67;42.20;;;31.90;99.90;;;;;;5015604;28;20034;-66
2022/04/17 04:16:21;;;;;;;54.13;41.40;;;31.80;99.90;;;;;;5015607;28;20542;-65
2022/04/17 04:18:47;;;;;;;39.47;31.55;;;31.90;99.90;;;;;;4991812;28;20030;-67
2022/04/17 04:21:14;;;;;;;39.65;32.33;;;31.90;99.90;;;;;;5002787;28;20342;-66
2022/04/17 04:23:41;;;;;;;38.03;31.23;;;31.80;99.90;;;;;;5014688;28;20032;-66
2022/04/17 04:26:08;;;;;;;42.25;32.13;;;31.70;99.90;;;;;;5034868;28;20036;-63
2022/04/17 04:28:36;;;;;;;32.33;28.77;;;31.60;99.90;;;;;;5018263;28;20036;-65
2022/04/17 04:31:05;;;;;;;38.30;29.98;;;31.60;99.90;;;;;;5015173;28;20026;-65
2022/04/17 04:33:33;;;;;;;37.58;29.48;;;31.60;99.90;;;;;;5023628;28;20101;-65
2022/04/17 04:36:00;;;;;;;33.75;26.88;;;31.50;99.90;;;;;;5025931;28;20026;-64
2022/04/17 04:38:27;;;;;;;41.80;33.28;;;31.50;99.90;;;;;;5024502;28;20029;-65
2022/04/17 04:40:54;;;;;;;37.40;31.27;;;31.60;99.90;;;;;;5026262;28;20188;-66
2022/04/17 04:43:21;;;;;;;36.05;31.50;;;31.70;99.90;;;;;;5017632;28;20409;-66
2022/04/17 04:51:25;;;;;;;39.10;31.35;;;31.60;99.90;;;;;;5025956;28;20022;-66
2022/04/17 04:53:53;;;;;;;36.88;28.92;;;31.80;99.90;;;;;;5027563;28;20067;-66
2022/04/17 04:56:20;;;;;;;36.70;30.50;;;31.80;99.90;;;;;;5027343;28;20100;-66
2022/04/17 04:58:47;;;;;;;36.30;28.73;;;31.80;99.90;;;;;;5025051;28;20025;-69
2022/04/17 05:01:14;;;;;;;39.67;31.63;;;31.80;99.90;;;;;;5022257;28;20052;-65
2022/04/17 05:03:41;;;;;;;40.72;30.60;;;31.70;99.90;;;;;;5020281;28;20115;-65
2022/04/17 05:06:08;;;;;;;45.72;36.85;;;31.90;99.90;;;;;;5020771;28;20026;-66
2022/04/17 05:08:35;;;;;;;46.63;37.63;;;32.00;99.90;;;;;;5020108;28;20105;-67
2022/04/17 05:11:02;;;;;;;41.20;35.75;;;31.90;99.90;;;;;;5002987;28;20359;-66
2022/04/17 05:13:28;;;;;;;39.30;31.77;;;32.00;99.90;;;;;;5019132;28;20029;-64
2022/04/17 05:15:55;;;;;;;39.95;30.95;;;32.00;99.90;;;;;;5013514;28;20084;-65
2022/04/17 05:18:22;;;;;;;39.63;29.00;;;32.20;99.90;;;;;;5014258;28;20486;-65
2022/04/17 05:20:48;;;;;;;37.67;31.17;;;32.40;99.90;;;;;;5007171;28;20040;-64
2022/04/17 05:23:26;;;;;;;36.40;30.50;;;32.60;99.90;;;;;;4998630;28;20034;-64
2022/04/17 05:25:54;;;;;;;40.45;32.80;;;32.70;99.90;;;;;;4994119;28;20026;-65
2022/04/17 05:28:22;;;;;;;36.75;31.65;;;32.70;99.90;;;;;;4996618;28;20026;-65
2022/04/17 05:30:49;;;;;;;38.95;33.20;;;32.70;99.90;;;;;;5019256;28;20028;-64
2022/04/17 05:33:19;;;;;;;38.67;32.95;;;32.50;99.90;;;;;;5022188;28;20114;-65
2022/04/17 05:35:46;;;;;;;40.65;31.25;;;32.40;99.90;;;;;;5009886;28;20533;-66
2022/04/17 05:38:13;;;;;;;32.40;27.42;;;32.30;99.90;;;;;;5011974;28;20037;-65
2022/04/17 05:40:43;;;;;;;38.20;29.75;;;32.20;99.90;;;;;;5020305;28;20030;-65
2022/04/17 05:43:10;;;;;;;37.47;30.25;;;32.30;99.90;;;;;;5017123;28;20026;-65
2022/04/17 05:45:38;;;;;;;40.58;32.97;;;32.30;99.90;;;;;;5023329;28;20483;-63
2022/04/17 05:48:07;;;;;;;42.22;33.38;;;32.30;99.90;;;;;;5017359;28;20022;-68
2022/04/17 05:50:34;;;;;;;37.97;31.48;;;32.30;99.90;;;;;;5021441;28;20029;-64
2022/04/17 05:53:01;;;;;;;39.15;33.22;;;32.20;99.90;;;;;;5004664;28;20018;-64
2022/04/17 05:55:28;;;;;;;36.03;27.77;;;32.30;99.90;;;;;;5024122;28;20395;-64
2022/04/17 05:57:54;;;;;;;40.35;28.10;;;32.20;99.90;;;;;;5024199;28;20022;-63
2022/04/17 06:00:22;;;;;;;36.78;29.25;;;32.10;99.90;;;;;;5029559;28;20116;-63
2022/04/17 06:02:49;;;;;;;36.85;27.13;;;32.30;99.90;;;;;;5026414;28;20056;-69
2022/04/17 06:05:19;;;;;;;39.65;26.88;;;32.40;99.90;;;;;;5015113;28;20069;-65
2022/04/17 06:07:45;;;;;;;33.05;25.80;;;32.60;99.90;;;;;;5010704;28;20126;-67
2022/04/17 06:10:13;;;;;;;37.72;28.08;;;32.70;99.90;;;;;;5004203;28;20467;-67
2022/04/17 06:12:41;;;;;;;33.35;26.05;;;32.60;99.90;;;;;;5007520;28;20022;-69
2022/04/17 06:15:10;;;;;;;35.50;27.38;;;32.50;99.90;;;;;;5012182;28;20022;-66
2022/04/17 06:17:39;;;;;;;29.58;25.35;;;32.50;99.90;;;;;;5011540;28;20245;-68
2022/04/17 06:20:09;;;;;;;34.72;28.85;;;32.40;99.90;;;;;;5016263;28;20041;-69
2022/04/17 06:22:36;;;;;;;36.75;27.13;;;32.40;99.90;;;;;;5017108;28;20121;-67
2022/04/17 06:25:07;;;;;;;37.25;28.92;;;32.40;99.90;;;;;;5015688;28;20022;-68
2022/04/17 06:27:45;;;;;;;47.03;37.10;;;32.30;99.90;;;;;;5016817;28;20613;-67
2022/04/17 06:32:44;;;;;;;67.90;47.37;;;32.00;99.90;;;;;;5017098;28;20022;-69
2022/04/17 06:35:12;;;;;;;45.70;32.80;;;32.00;99.90;;;;;;5006946;28;20037;-71
2022/04/17 06:37:51;;;;;;;53.70;37.92;;;31.70;99.90;;;;;;5019452;28;20030;-69
2022/04/17 06:40:20;;;;;;;64.43;39.70;;;31.30;99.90;;;;;;5013578;28;20079;-68
2022/04/17 06:42:48;;;;;;;77.05;41.78;;;30.90;99.90;;;;;;5016501;28;20033;-69
2022/04/17 06:45:16;;;;;;;68.78;46.50;;;30.60;99.90;;;;;;5018686;28;20430;-70
2022/04/17 06:47:43;;;;;;;63.85;42.85;;;30.20;99.90;;;;;;5016747;28;20022;-71
2022/04/17 06:50:11;;;;;;;46.35;35.55;;;29.80;99.90;;;;;;5019717;28;20072;-71
2022/04/17 06:52:38;;;;;;;41.50;28.33;;;29.50;99.90;;;;;;5017530;28;20033;-69
2022/04/17 06:55:08;;;;;;;40.05;25.35;;;29.20;99.90;;;;;;5019249;28;21138;-64
2022/04/17 06:57:36;;;;;;;41.10;27.98;;;28.90;99.90;;;;;;5017325;28;20053;-64
2022/04/17 07:00:07;;;;;;;46.47;26.52;;;28.70;99.90;;;;;;5016140;28;20034;-66
2022/04/17 07:02:37;;;;;;;37.80;23.30;;;28.40;99.90;;;;;;5018365;28;20049;-68
2022/04/17 07:05:05;;;;;;;27.25;18.80;;;28.10;99.90;;;;;;5017981;28;20509;-65
2022/04/17 07:07:33;;;;;;;30.30;20.00;;;27.80;99.90;;;;;;5018544;28;20455;-64
2022/04/17 07:10:01;;;;;;;23.33;16.73;;;27.70;99.90;;;;;;5018077;28;20112;-66
2022/04/17 07:12:29;;;;;;;21.60;16.88;;;27.50;99.90;;;;;;5017762;28;20478;-65
2022/04/17 07:14:59;;;;;;;28.63;17.92;;;27.20;99.90;;;;;;5018406;28;20042;-65
2022/04/17 07:17:46;;;;;;;21.15;17.17;;;27.20;99.90;;;;;;5019711;28;20506;-64
2022/04/17 07:20:12;;;;;;;19.05;14.43;;;27.20;99.90;;;;;;5016459;28;20042;-66
2022/04/17 07:22:41;;;;;;;19.88;14.38;;;27.30;99.90;;;;;;5021664;28;20022;-68
2022/04/17 07:25:09;;;;;;;18.02;13.63;;;27.30;99.90;;;;;;5016654;28;20022;-65
2022/04/17 07:27:45;;;;;;;19.45;13.43;;;27.40;99.90;;;;;;5018566;28;20083;-62
2022/04/17 07:30:17;;;;;;;15.88;13.02;;;27.40;99.90;;;;;;5015818;28;20022;-66
2022/04/17 07:32:48;;;;;;;21.02;14.85;;;27.50;99.90;;;;;;5022997;28;20030;-65
2022/04/17 07:35:17;;;;;;;18.60;13.88;;;27.80;99.90;;;;;;5021702;28;20045;-68
2022/04/17 07:37:54;;;;;;;20.98;14.95;;;27.80;99.90;;;;;;5021573;28;20091;-65
2022/04/17 07:40:25;;;;;;;17.58;14.60;;;27.70;99.90;;;;;;5021775;28;20025;-65
2022/04/17 07:42:53;;;;;;;19.55;14.35;;;27.80;99.90;;;;;;5016723;28;20038;-65
2022/04/17 07:45:20;;;;;;;17.98;14.02;;;27.90;99.90;;;;;;5019874;28;20049;-66
2022/04/17 07:47:48;;;;;;;15.07;13.15;;;27.80;99.90;;;;;;5018329;28;20029;-66
2022/04/17 07:50:17;;;;;;;17.98;13.30;;;27.90;99.90;;;;;;5021263;28;20033;-69
2022/04/17 07:52:44;;;;;;;18.33;14.93;;;28.10;99.90;;;;;;5017071;28;20084;-65
2022/04/17 07:55:14;;;;;;;19.92;16.17;;;28.20;99.90;;;;;;5019024;28;20084;-64
2022/04/17 08:00:21;;;;;;;16.98;13.73;;;28.30;99.90;;;;;;5015021;28;20026;-65
2022/04/17 08:02:50;;;;;;;20.70;12.48;;;28.10;99.90;;;;;;5014775;28;20025;-65
2022/04/17 08:05:17;;;;;;;16.67;13.05;;;28.00;99.90;;;;;;5013687;28;20026;-68
2022/04/17 08:07:43;;;;;;;18.25;12.88;;;28.10;99.90;;;;;;5020496;28;20022;-66
2022/04/17 08:10:10;;;;;;;16.38;14.35;;;28.30;99.90;;;;;;5021013;28;20037;-65
2022/04/17 08:12:37;;;;;;;16.30;14.52;;;28.40;99.90;;;;;;5015332;28;20022;-65
2022/04/17 08:15:04;;;;;;;18.23;16.40;;;28.50;99.90;;;;;;5024707;28;20041;-65
2022/04/17 08:17:31;;;;;;;20.70;16.05;;;28.60;99.90;;;;;;5021267;28;20164;-67
2022/04/17 08:19:58;;;;;;;19.35;15.93;;;28.70;99.90;;;;;;5016499;28;20034;-66
2022/04/17 08:22:25;;;;;;;16.65;14.80;;;28.70;99.90;;;;;;5017545;28;20470;-66
2022/04/17 08:24:52;;;;;;;19.35;16.02;;;28.70;99.90;;;;;;5011852;28;20030;-67
2022/04/17 08:27:18;;;;;;;21.73;17.60;;;28.80;99.90;;;;;;5020081;28;20034;-68
2022/04/17 08:29:45;;;;;;;21.10;18.38;;;28.80;99.90;;;;;;5019205;28;20394;-66
2022/04/17 08:32:11;;;;;;;18.73;16.48;;;28.90;99.90;;;;;;5014630;28;20509;-62
2022/04/17 08:34:38;;;;;;;24.92;18.30;;;29.00;99.90;;;;;;5020937;28;20037;-65
2022/04/17 08:37:05;;;;;;;25.20;19.35;;;29.20;99.90;;;;;;5015643;28;20017;-66
2022/04/17 08:39:31;;;;;;;29.05;21.85;;;29.20;99.90;;;;;;5013634;28;20033;-65
2022/04/17 08:42:01;;;;;;;23.17;18.65;;;29.20;99.90;;;;;;5017059;28;20393;-66
2022/04/17 08:44:27;;;;;;;20.77;18.58;;;29.30;99.90;;;;;;5021876;28;20524;-63
2022/04/17 08:46:54;;;;;;;22.33;19.98;;;29.40;99.90;;;;;;5026596;28;20034;-66
2022/04/17 08:49:23;;;;;;;22.77;20.25;;;29.40;99.90;;;;;;5024130;28;20072;-62
2022/04/17 08:51:53;;;;;;;22.17;19.08;;;29.50;99.90;;;;;;5025781;28;20463;-63
2022/04/17 08:54:22;;;;;;;24.65;20.77;;;29.50;99.90;;;;;;5027077;28;20013;-65
2022/04/17 08:56:49;;;;;;;22.95;20.23;;;29.60;99.90;;;;;;5025661;28;20437;-65
2022/04/17 08:59:15;;;;;;;19.58;17.48;;;29.70;99.90;;;;;;5024306;28;20021;-63
2022/04/17 09:01:42;;;;;;;22.92;17.90;;;29.70;99.90;;;;;;5026200;28;20032;-63
2022/04/17 09:04:09;;;;;;;19.73;17.60;;;29.60;99.90;;;;;;5025308;28;20037;-66
2022/04/17 09:06:36;;;;;;;20.25;16.80;;;29.60;99.90;;;;;;5017329;28;20037;-63
2022/04/17 09:09:05;;;;;;;18.23;16.33;;;29.60;99.90;;;;;;5013497;28;20053;-63
2022/04/17 09:11:34;;;;;;;23.65;16.27;;;29.60;99.90;;;;;;5029136;28;20448;-64
2022/04/17 09:14:03;;;;;;;19.23;16.67;;;29.60;99.90;;;;;;5017088;28;20430;-64
2022/04/17 09:16:34;;;;;;;20.52;17.40;;;29.60;99.90;;;;;;5025922;28;20495;-67
2022/04/17 09:19:14;;;;;;;25.85;22.45;;;29.50;99.90;;;;;;5010726;28;20087;-63
2022/04/17 09:21:42;;;;;;;31.33;27.83;;;29.60;99.90;;;;;;5029644;28;20033;-64
2022/04/17 09:24:18;;;;;;;32.53;29.00;;;29.70;99.90;;;;;;5016977;28;20026;-63
2022/04/17 09:26:57;;;;;;;39.53;31.75;;;29.70;99.90;;;;;;5023716;28;20034;-63
2022/04/17 09:29:28;;;;;;;35.78;28.33;;;29.60;99.90;;;;;;5019609;28;20079;-65
2022/04/17 09:31:58;;;;;;;26.23;21.60;;;29.60;99.90;;;;;;5015807;28;20029;-64
2022/04/17 09:34:26;;;;;;;36.15;25.27;;;29.50;99.90;;;;;;5026526;28;20042;-63
2022/04/17 09:36:57;;;;;;;31.10;24.17;;;29.50;99.90;;;;;;5013772;28;20030;-64
2022/04/17 09:39:30;;;;;;;27.73;24.17;;;29.50;99.90;;;;;;5012765;28;20506;-63
2022/04/17 09:42:02;;;;;;;26.10;20.70;;;29.50;99.90;;;;;;5021787;28;20096;-64
2022/04/17 09:44:49;;;;;;;27.80;21.80;;;29.50;99.90;;;;;;5019127;28;20034;-64
2022/04/17 09:47:20;;;;;;;32.35;26.85;;;29.50;99.90;;;;;;5013715;28;20021;-63
2022/04/17 09:49:59;;;;;;;39.17;28.63;;;29.50;99.90;;;;;;5013130;28;20085;-65
2022/04/17 09:52:32;;;;;;;36.70;26.77;;;29.50;99.90;;;;;;5013566;28;20041;-63
2022/04/17 09:55:00;;;;;;;;;;;29.50;99.90;;;;;;5015734;28;20102;-64
2022/04/17 09:57:28;;;;;;;37.08;28.17;;;29.50;99.90;;;;;;5017543;28;19945;-65
2022/04/17 10:00:06;;;;;;;31.75;25.23;;;29.50;99.90;;;;;;5017191;28;20022;-66
2022/04/17 10:02:33;;;;;;;39.85;26.13;;;29.40;99.90;;;;;;5017196;28;20101;-66
2022/04/17 10:05:01;;;;;;;41.17;27.08;;;29.40;99.90;;;;;;5017102;28;20037;-66
2022/04/17 10:07:28;;;;;;;38.05;26.35;;;29.40;99.90;;;;;;5018510;28;20022;-68
2022/04/17 10:09:55;;;;;;;29.15;24.33;;;29.40;99.90;;;;;;5015812;28;20033;-66
2022/04/17 10:12:22;;;;;;;28.55;23.25;;;29.40;99.90;;;;;;5030369;28;20029;-66
2022/04/17 10:14:50;;;;;;;24.63;20.67;;;29.40;99.90;;;;;;5037450;28;20474;-66
2022/04/17 10:17:22;;;;;;;26.05;20.33;;;29.40;99.90;;;;;;5028029;28;20108;-65
2022/04/17 10:19:52;;;;;;;20.83;18.58;;;29.40;99.90;;;;;;5017115;28;20470;-64
2022/04/17 10:22:20;;;;;;;21.45;18.85;;;29.40;99.90;;;;;;5016779;28;20561;-64
2022/04/17 10:24:52;;;;;;;24.05;20.23;;;29.50;99.90;;;;;;5016612;28;20033;-65
2022/04/17 10:27:23;;;;;;;20.80;18.20;;;29.40;99.90;;;;;;5014929;28;20020;-65
2022/04/17 10:29:55;;;;;;;24.00;19.08;;;29.40;99.90;;;;;;5016674;28;20044;-66
2022/04/17 10:33:01;;;;;;;27.63;20.50;;;29.50;99.90;;;;;;5009748;28;20076;-65
2022/04/17 10:35:45;;;;;;;29.27;18.63;;;29.40;99.90;;;;;;5011192;28;20073;-66
2022/04/17 10:38:13;;;;;;;22.67;18.92;;;29.50;99.90;;;;;;5010470;28;20030;-66
2022/04/17 10:40:40;;;;;;;26.48;20.40;;;29.50;99.90;;;;;;5015052;28;20041;-64
2022/04/17 10:43:07;;;;;;;25.00;20.52;;;29.50;99.90;;;;;;5013870;28;20014;-66
2022/04/17 10:45:53;;;;;;;30.25;21.25;;;29.50;99.90;;;;;;4996598;28;20495;-65
2022/04/17 10:48:27;;;;;;;28.20;19.67;;;29.50;99.90;;;;;;5017883;28;20025;-65
2022/04/17 10:50:54;;;;;;;31.45;22.38;;;29.50;99.90;;;;;;5013571;28;20030;-65
2022/04/17 10:53:26;;;;;;;36.40;25.05;;;29.50;99.90;;;;;;5012721;28;20018;-63
2022/04/17 10:56:15;;;;;;;48.03;30.77;;;29.30;99.90;;;;;;5011766;28;20040;-63
2022/04/17 10:58:52;;;;;;;55.88;31.13;;;29.20;99.90;;;;;;5014483;28;20629;-63
2022/04/17 11:01:47;;;;;;;46.65;29.77;;;29.20;99.90;;;;;;5011788;28;20083;-65
2022/04/17 11:04:54;;;;;;;42.58;27.23;;;29.20;99.90;;;;;;5008047;28;20034;-64
2022/04/17 11:07:28;;;;;;;40.70;27.45;;;29.20;99.90;;;;;;5015007;28;20513;-65
2022/04/17 11:10:07;;;;;;;44.33;28.20;;;29.20;99.90;;;;;;5016160;28;20029;-63
2022/04/17 11:12:47;;;;;;;37.42;28.30;;;29.20;99.90;;;;;;5016050;28;20042;-63
2022/04/17 11:15:14;;;;;;;44.20;30.85;;;29.20;99.90;;;;;;5015764;28;20517;-65
2022/04/17 11:17:42;;;;;;;191.05;126.43;;;29.30;99.90;;;;;;5015958;28;20025;-65
2022/04/17 11:20:10;;;;;;;69.55;50.72;;;29.20;99.90;;;;;;5015544;28;20479;-64
2022/04/17 11:22:38;;;;;;;56.10;40.50;;;29.20;99.90;;;;;;5014956;28;20026;-65
2022/04/17 11:25:11;;;;;;;46.40;35.53;;;29.10;99.90;;;;;;4997411;28;20467;-66
2022/04/17 11:27:41;;;;;;;38.50;28.80;;;29.10;99.90;;;;;;5014425;28;20044;-64
2022/04/17 11:30:28;;;;;;;40.10;28.25;;;29.10;99.90;;;;;;5015917;28;20022;-65
2022/04/17 11:32:56;;;;;;;52.75;41.08;;;29.10;99.90;;;;;;4999586;28;20057;-65
2022/04/17 11:35:28;;;;;;;70.78;53.33;;;29.10;99.90;;;;;;5014224;28;20081;-66
2022/04/17 11:37:56;;;;;;;77.68;55.28;;;29.10;99.90;;;;;;5015686;28;20037;-66
2022/04/17 11:40:26;;;;;;;50.35;37.28;;;29.00;99.90;;;;;;5015629;28;20037;-64
2022/04/17 11:42:54;;;;;;;43.38;32.83;;;29.00;99.90;;;;;;5020691;28;20391;-66
2022/04/17 11:45:25;;;;;;;40.72;31.23;;;29.00;99.90;;;;;;5014743;28;20535;-65
2022/04/17 11:47:53;;;;;;;47.07;38.60;;;29.00;99.90;;;;;;5014432;28;20493;-65
2022/04/17 11:50:26;;;;;;;40.33;32.13;;;29.00;99.90;;;;;;5014608;28;20105;-65
2022/04/17 11:52:52;;;;;;;;;;;28.90;99.90;;;;;;5014944;28;20053;-63
2022/04/17 11:55:41;;;;;;;42.45;31.30;;;28.90;99.90;;;;;;5014179;28;19906;-63
2022/04/17 11:58:14;;;;;;;41.97;31.80;;;28.90;99.90;;;;;;5010656;28;20034;-65
2022/04/17 12:00:40;;;;;;;46.92;33.42;;;28.80;99.90;;;;;;5015767;28;20119;-62
2022/04/17 12:03:09;;;;;;;106.20;78.32;;;28.90;99.90;;;;;;4995907;28;20382;-64
2022/04/17 12:05:36;;;;;;;53.63;40.38;;;28.90;99.90;;;;;;5014779;28;20399;-65
2022/04/17 12:08:09;;;;;;;38.70;28.50;;;28.90;99.90;;;;;;5014875;28;20346;-65
2022/04/17 12:10:38;;;;;;;31.40;24.02;;;28.90;99.90;;;;;;5015141;28;20018;-65
2022/04/17 12:13:25;;;;;;;34.42;27.35;;;28.90;99.90;;;;;;5014058;28;20022;-65
2022/04/17 12:16:02;;;;;;;62.72;50.90;;;28.90;99.90;;;;;;5013816;28;20018;-64
2022/04/17 12:18:30;;;;;;;54.83;45.58;;;28.90;99.90;;;;;;5012296;28;20033;-65
2022/04/17 12:21:03;;;;;;;37.55;26.38;;;28.90;99.90;;;;;;5014476;28;20079;-64
2022/04/17 12:23:32;;;;;;;41.28;30.25;;;28.90;99.90;;;;;;5012892;28;20076;-67
2022/04/17 12:26:00;;;;;;;44.78;33.70;;;28.90;99.90;;;;;;5014690;28;20549;-66
2022/04/17 12:28:28;;;;;;;42.78;31.60;;;28.90;99.90;;;;;;5012379;28;20025;-66
2022/04/17 12:30:55;;;;;;;65.25;46.50;;;28.90;99.90;;;;;;5015003;28;20083;-67
2022/04/17 12:33:27;;;;;;;43.22;32.67;;;28.80;99.90;;;;;;5014582;28;20033;-69
2022/04/17 12:36:06;;;;;;;66.03;44.65;;;28.80;99.90;;;;;;5014254;28;20076;-66
2022/04/17 12:38:33;;;;;;;33.90;25.15;;;28.80;99.90;;;;;;5013617;28;20026;-68
2022/04/17 12:41:00;;;;;;;53.28;40.65;;;28.70;99.90;;;;;;5014644;28;20026;-66
2022/04/17 12:43:30;;;;;;;57.75;44.83;;;28.70;99.90;;;;;;5012269;28;20053;-65
2022/04/17 12:46:06;;;;;;;29.52;23.98;;;28.70;99.90;;;;;;5012305;28;20034;-66
2022/04/17 12:48:35;;;;;;;50.10;38.20;;;28.70;99.90;;;;;;5013872;28;20029;-67
2022/04/17 12:51:04;;;;;;;43.60;35.75;;;28.80;99.90;;;;;;5014460;28;20022;-70
2022/04/17 12:53:35;;;;;;;63.70;50.30;;;28.80;99.90;;;;;;5012445;28;20482;-68
2022/04/17 12:56:02;;;;;;;49.97;42.72;;;28.70;99.90;;;;;;5014387;28;20044;-68
2022/04/17 12:58:29;;;;;;;150.43;116.10;;;28.70;99.90;;;;;;5011134;28;20382;-68
2022/04/17 13:00:57;;;;;;;31.42;23.35;;;28.70;99.90;;;;;;5015125;28;20097;-66
2022/04/17 13:03:34;;;;;;;22.65;16.42;;;28.70;99.90;;;;;;5011427;28;20029;-68